Time;durP1;ratioP1;P1;durP2;ratioP2;P2;SDS_P1;SDS_P2;PMS_P1;PMS_P2;Temp;Humidity;BMP_temperature;BMP_pressure;BME280_temperature;BME280_humidity;BME280_pressure;Samples;Min_cycle;Max_cycle;Signal;HPM_P1;HPM_P2
2022/12/22 03:26:51;;;;;;;2.37;1.60;;;10.80;88.10;;;;;;5020353;28;20478;-74
2022/12/22 03:29:17;;;;;;;4.30;1.70;;;10.70;88.10;;;;;;5025560;28;20911;-74
2022/12/22 03:31:42;;;;;;;2.13;1.73;;;10.70;88.30;;;;;;5024077;28;20205;-75
2022/12/22 03:34:08;;;;;;;1.60;1.33;;;10.70;88.30;;;;;;5028758;28;20239;-74
2022/12/22 03:36:34;;;;;;;3.70;1.40;;;10.70;88.30;;;;;;5024642;28;20239;-75
2022/12/22 03:38:59;;;;;;;1.87;1.53;;;10.70;88.10;;;;;;5026552;28;20203;-74
2022/12/22 03:46:53;;;;;;;2.07;1.70;;;10.60;89.30;;;;;;5020153;28;20436;-73
2022/12/22 03:49:21;;;;;;;5.90;1.83;;;10.60;89.60;;;;;;5027231;28;20948;-74
2022/12/22 03:51:49;;;;;;;2.30;1.23;;;10.60;89.20;;;;;;5024380;28;20878;-73
2022/12/22 03:54:17;;;;;;;2.53;1.30;;;10.70;88.70;;;;;;5029159;28;21098;-74
2022/12/22 03:56:44;;;;;;;2.67;1.43;;;10.90;87.80;;;;;;5018482;28;21111;-74
2022/12/22 03:59:10;;;;;;;2.50;1.10;;;10.90;87.30;;;;;;5030705;28;20427;-74
2022/12/22 04:01:40;;;;;;;2.83;1.43;;;11.00;87.10;;;;;;5021133;28;21013;-75
2022/12/22 04:04:05;;;;;;;2.40;1.30;;;11.00;86.80;;;;;;5027525;28;20417;-74
2022/12/22 04:06:31;;;;;;;1.57;1.23;;;11.10;86.50;;;;;;5027905;28;20597;-74
2022/12/22 04:08:56;;;;;;;1.63;1.30;;;11.10;86.30;;;;;;5025186;28;20252;-74
2022/12/22 04:14:06;;;;;;;2.07;1.13;;;11.10;86.20;;;;;;5025683;28;20196;-73
2022/12/22 04:16:31;;;;;;;2.03;1.40;;;11.10;86.00;;;;;;5027050;28;20424;-73
2022/12/22 04:18:57;;;;;;;2.47;1.23;;;11.10;86.00;;;;;;5026381;28;20185;-75
2022/12/22 04:21:23;;;;;;;1.73;1.17;;;11.20;85.90;;;;;;5027000;28;20243;-75
2022/12/22 04:23:51;;;;;;;5.10;1.20;;;11.20;85.90;;;;;;5024069;28;20190;-74
2022/12/22 04:26:21;;;;;;;2.97;1.40;;;11.20;85.70;;;;;;5030592;28;20177;-74
2022/12/22 04:28:48;;;;;;;2.27;1.53;;;11.20;85.70;;;;;;5025435;28;20873;-74
2022/12/22 04:31:13;;;;;;;1.40;1.10;;;11.20;85.90;;;;;;5028757;28;21186;-75
2022/12/22 04:33:39;;;;;;;1.63;1.20;;;11.30;86.20;;;;;;5022977;28;20421;-73
2022/12/22 04:36:05;;;;;;;1.80;0.83;;;11.30;86.00;;;;;;5029445;28;20211;-74
2022/12/22 04:38:31;;;;;;;1.80;1.10;;;11.20;86.50;;;;;;5027841;28;20414;-74
2022/12/22 04:40:56;;;;;;;1.23;1.00;;;11.20;86.90;;;;;;5028820;28;20467;-74
2022/12/22 04:43:22;;;;;;;1.30;0.93;;;11.10;87.30;;;;;;5016481;28;20193;-75
2022/12/22 04:45:55;;;;;;;3.50;1.60;;;11.00;87.80;;;;;;5026093;28;20193;-74
2022/12/22 04:48:21;;;;;;;2.10;1.30;;;10.90;88.10;;;;;;5022503;28;20272;-75
2022/12/22 04:50:50;;;;;;;2.00;1.27;;;10.90;88.40;;;;;;5024987;28;20413;-74
2022/12/22 04:53:16;;;;;;;1.90;1.30;;;10.90;88.10;;;;;;5023561;28;21827;-74
2022/12/22 04:55:52;;;;;;;1.80;1.10;;;10.90;87.70;;;;;;5025783;28;20440;-74
2022/12/22 04:58:17;;;;;;;1.67;1.40;;;10.90;87.40;;;;;;5026177;28;20200;-74
2022/12/22 05:00:43;;;;;;;2.33;1.60;;;11.00;86.90;;;;;;5026522;28;20464;-74
2022/12/22 05:03:09;;;;;;;4.03;1.70;;;11.00;86.60;;;;;;5027998;28;20209;-73
2022/12/22 05:05:35;;;;;;;2.63;1.10;;;11.10;86.30;;;;;;5027121;28;20185;-75
2022/12/22 05:08:01;;;;;;;2.73;1.43;;;11.10;86.20;;;;;;5026399;28;20186;-73
2022/12/22 05:10:26;;;;;;;2.53;1.17;;;11.10;86.00;;;;;;5026432;28;20488;-74
2022/12/22 05:12:55;;;;;;;3.10;1.30;;;11.10;85.90;;;;;;5018672;28;20970;-74
2022/12/22 05:15:22;;;;;;;2.60;1.40;;;11.20;85.90;;;;;;5030193;28;20230;-74
2022/12/22 05:17:48;;;;;;;2.67;1.63;;;11.20;85.70;;;;;;5031349;28;20948;-75
2022/12/22 05:20:13;;;;;;;4.53;1.43;;;11.20;85.70;;;;;;5031525;28;20432;-74
2022/12/22 05:22:39;;;;;;;2.07;1.17;;;11.20;85.60;;;;;;5014390;28;20699;-75
2022/12/22 05:25:05;;;;;;;2.13;1.37;;;11.30;85.70;;;;;;5026275;28;20202;-74
2022/12/22 05:27:31;;;;;;;4.30;1.20;;;11.30;85.50;;;;;;5026557;28;20189;-75
2022/12/22 05:29:56;;;;;;;2.20;1.27;;;11.30;85.30;;;;;;5030320;28;20412;-74
2022/12/22 05:32:22;;;;;;;8.30;1.60;;;11.30;85.20;;;;;;5022078;28;20205;-74
2022/12/22 05:34:47;;;;;;;6.30;1.20;;;11.40;85.30;;;;;;5021982;28;20183;-74
2022/12/22 05:37:13;;;;;;;4.50;1.27;;;11.30;85.60;;;;;;5023089;28;20182;-74
2022/12/22 05:39:38;;;;;;;4.83;1.60;;;11.30;85.90;;;;;;5023720;28;20216;-74
2022/12/22 05:42:04;;;;;;;1.93;1.10;;;11.20;86.30;;;;;;5025016;28;20221;-75
2022/12/22 05:44:30;;;;;;;4.53;1.37;;;11.20;86.50;;;;;;5031098;28;20178;-73
2022/12/22 05:46:55;;;;;;;3.23;1.67;;;11.20;86.50;;;;;;5030203;28;20285;-74
2022/12/22 05:49:21;;;;;;;1.97;1.40;;;11.20;86.30;;;;;;5025233;28;20201;-74
2022/12/22 05:51:47;;;;;;;3.93;1.67;;;11.20;86.50;;;;;;5025913;28;20206;-75
2022/12/22 05:54:12;;;;;;;3.77;1.30;;;11.20;86.30;;;;;;5027477;28;20249;-75
2022/12/22 05:56:38;;;;;;;7.10;1.73;;;11.20;86.50;;;;;;5027491;28;20416;-73
2022/12/22 05:59:04;;;;;;;6.93;1.70;;;11.20;86.60;;;;;;5023424;28;20181;-75
2022/12/22 06:01:29;;;;;;;5.33;1.50;;;11.20;86.60;;;;;;5022276;28;20241;-74
2022/12/22 06:03:55;;;;;;;2.33;1.20;;;11.20;86.80;;;;;;5025808;28;20227;-74
2022/12/22 06:06:21;;;;;;;6.23;1.70;;;11.20;86.80;;;;;;5033467;28;20582;-75
2022/12/22 06:08:46;;;;;;;3.43;1.97;;;11.10;87.00;;;;;;5034334;28;20179;-73
2022/12/22 06:11:16;;;;;;;4.30;1.60;;;11.10;87.00;;;;;;5027647;28;20514;-73
2022/12/22 06:13:43;;;;;;;8.37;2.27;;;11.00;87.00;;;;;;5023981;28;20684;-74
2022/12/22 06:16:08;;;;;;;5.33;1.37;;;11.00;87.00;;;;;;5032102;28;20800;-73
2022/12/22 06:18:34;;;;;;;5.37;1.70;;;11.00;87.00;;;;;;5028302;28;20424;-74
2022/12/22 06:20:59;;;;;;;3.60;2.07;;;11.00;86.90;;;;;;5021790;28;20637;-74
2022/12/22 06:23:25;;;;;;;3.47;1.60;;;10.90;86.90;;;;;;5025362;28;20193;-73
2022/12/22 06:25:59;;;;;;;5.60;1.57;;;10.90;87.00;;;;;;5021571;28;20190;-73
2022/12/22 06:28:25;;;;;;;7.30;2.37;;;10.90;86.90;;;;;;5015762;28;20182;-73
2022/12/22 06:30:53;;;;;;;5.33;1.40;;;10.90;86.90;;;;;;5021868;28;20426;-74
2022/12/22 06:33:19;;;;;;;7.00;2.20;;;10.90;86.80;;;;;;5026924;28;20792;-74
2022/12/22 06:35:44;;;;;;;6.67;1.90;;;10.90;86.20;;;;;;5025767;28;20477;-74
2022/12/22 06:38:10;;;;;;;3.80;1.93;;;10.90;86.00;;;;;;5029483;28;20944;-73
2022/12/22 06:40:35;;;;;;;11.60;2.30;;;10.90;85.50;;;;;;5024469;28;20202;-73
2022/12/22 06:43:07;;;;;;;3.93;1.80;;;11.00;84.70;;;;;;5029912;28;20581;-74
2022/12/22 06:45:40;;;;;;;4.80;1.83;;;11.10;84.30;;;;;;5022791;28;20181;-74
2022/12/22 06:48:08;;;;;;;9.87;2.00;;;11.10;83.70;;;;;;5026355;28;20416;-74
2022/12/22 06:50:33;;;;;;;4.27;2.00;;;11.30;83.00;;;;;;5022335;28;20428;-74
2022/12/22 06:52:59;;;;;;;6.40;2.07;;;11.40;82.50;;;;;;5023754;28;20534;-74
2022/12/22 06:55:25;;;;;;;11.83;2.17;;;11.40;82.10;;;;;;5027725;28;20550;-74
2022/12/22 06:57:50;;;;;;;6.70;2.00;;;11.50;81.40;;;;;;5030642;28;20185;-74
2022/12/22 07:00:17;;;;;;;6.10;2.67;;;11.50;80.90;;;;;;5029924;28;20198;-75
2022/12/22 07:02:42;;;;;;;3.73;1.80;;;11.60;80.80;;;;;;5031749;28;20213;-75
2022/12/22 07:05:08;;;;;;;5.93;2.03;;;11.60;80.60;;;;;;5026692;28;20446;-74
2022/12/22 07:07:34;;;;;;;6.80;2.43;;;11.60;80.30;;;;;;5027825;28;20247;-73
2022/12/22 07:09:59;;;;;;;3.80;1.80;;;11.60;80.50;;;;;;5025622;28;20190;-74
2022/12/22 07:12:25;;;;;;;5.20;1.90;;;11.60;80.80;;;;;;5025107;28;20217;-74
2022/12/22 07:14:50;;;;;;;6.13;2.10;;;11.60;80.80;;;;;;5018602;28;20185;-74
2022/12/22 07:17:16;;;;;;;6.03;1.90;;;11.60;80.60;;;;;;5025953;28;20276;-74
2022/12/22 07:19:42;;;;;;;5.23;2.27;;;11.60;80.30;;;;;;5019769;28;20219;-74
2022/12/22 07:22:07;;;;;;;9.57;2.13;;;11.60;80.20;;;;;;5018425;28;20220;-73
2022/12/22 07:24:33;;;;;;;7.20;2.20;;;11.60;79.60;;;;;;5018060;28;20181;-74
2022/12/22 07:26:59;;;;;;;5.80;1.80;;;11.60;79.30;;;;;;5021278;28;20768;-74
2022/12/22 07:29:24;;;;;;;10.47;2.40;;;11.60;79.50;;;;;;5015617;28;20177;-75
2022/12/22 07:31:50;;;;;;;7.33;2.07;;;11.60;79.20;;;;;;5031155;28;21108;-75
2022/12/22 07:34:16;;;;;;;6.13;2.03;;;11.60;79.00;;;;;;5027578;28;20228;-74
2022/12/22 07:36:41;;;;;;;8.60;2.10;;;11.70;78.90;;;;;;5037577;28;20330;-75
2022/12/22 07:39:07;;;;;;;4.07;1.60;;;11.70;78.60;;;;;;5034204;28;20234;-74
2022/12/22 07:44:17;;;;;;;8.33;2.23;;;11.80;77.80;;;;;;5027163;28;20822;-74
2022/12/22 07:46:42;;;;;;;5.50;2.07;;;11.80;78.30;;;;;;5019924;28;20437;-75
2022/12/22 07:51:58;;;;;;;11.83;2.17;;;11.60;79.90;;;;;;5017821;28;20273;-74
2022/12/22 07:54:24;;;;;;;14.43;2.33;;;11.40;81.50;;;;;;5025158;28;20430;-74
2022/12/22 07:56:50;;;;;;;8.20;2.23;;;11.30;82.40;;;;;;5015853;28;20467;-75
2022/12/22 07:59:15;;;;;;;5.90;2.20;;;11.20;82.80;;;;;;5024470;28;20455;-74
2022/12/22 08:01:42;;;;;;;5.60;2.50;;;11.20;83.30;;;;;;5013229;28;20670;-75
2022/12/22 08:04:11;;;;;;;11.13;2.43;;;11.10;83.70;;;;;;5023426;28;20590;-73
2022/12/22 08:06:37;;;;;;;7.43;2.63;;;11.00;84.40;;;;;;5022748;28;20433;-74
2022/12/22 08:09:05;;;;;;;8.93;2.03;;;11.00;84.40;;;;;;5019877;28;20432;-74
2022/12/22 08:11:31;;;;;;;6.73;1.90;;;11.00;84.40;;;;;;5019832;28;20472;-74
2022/12/22 08:13:56;;;;;;;3.90;1.67;;;11.00;84.60;;;;;;5022273;28;20437;-76
2022/12/22 08:16:22;;;;;;;9.53;2.17;;;10.90;84.70;;;;;;5022618;28;20200;-75
2022/12/22 08:18:48;;;;;;;3.77;1.67;;;11.00;84.90;;;;;;5021170;28;20194;-74
2022/12/22 08:21:14;;;;;;;7.30;1.83;;;10.90;84.70;;;;;;5024534;28;20209;-73
2022/12/22 08:23:40;;;;;;;4.70;1.90;;;10.90;84.60;;;;;;5022165;28;20871;-75
2022/12/22 08:26:23;;;;;;;4.83;2.00;;;11.00;84.60;;;;;;5020005;28;20471;-74
2022/12/22 08:29:09;;;;;;;6.17;2.07;;;11.00;84.60;;;;;;5020248;28;20185;-75
2022/12/22 08:31:35;;;;;;;6.50;1.83;;;11.00;84.60;;;;;;5020782;28;20467;-75
2022/12/22 08:34:04;;;;;;;8.33;2.57;;;11.00;84.70;;;;;;5026460;28;20481;-74
2022/12/22 08:36:35;;;;;;;8.67;1.90;;;11.00;84.70;;;;;;5026228;28;20208;-75
2022/12/22 08:39:00;;;;;;;7.70;2.17;;;11.00;84.70;;;;;;5020582;28;20432;-74
2022/12/22 08:44:13;;;;;;;14.53;2.40;;;11.10;84.00;;;;;;5023878;28;20338;-73
2022/12/22 08:46:38;;;;;;;15.90;2.80;;;11.20;83.70;;;;;;5026034;28;20497;-74
2022/12/22 08:49:04;;;;;;;9.37;2.10;;;11.20;83.70;;;;;;5020302;28;20193;-73
2022/12/22 08:51:29;;;;;;;4.47;2.20;;;11.20;83.30;;;;;;5021720;28;20287;-74
2022/12/22 08:53:55;;;;;;;11.03;2.40;;;11.30;82.40;;;;;;5024251;28;20344;-75
2022/12/22 08:56:21;;;;;;;6.80;2.97;;;11.30;82.10;;;;;;5022745;28;20198;-72
2022/12/22 08:58:46;;;;;;;6.50;1.93;;;11.30;82.10;;;;;;5028329;28;20200;-75
2022/12/22 09:01:20;;;;;;;5.87;2.10;;;11.40;81.70;;;;;;5022741;28;20316;-75
2022/12/22 09:03:50;;;;;;;3.00;2.10;;;11.40;81.20;;;;;;5028353;28;20189;-74
2022/12/22 09:06:17;;;;;;;5.10;2.10;;;11.50;80.90;;;;;;5021691;28;20471;-74
2022/12/22 09:08:42;;;;;;;4.63;2.17;;;11.50;79.90;;;;;;5031696;28;20461;-73
2022/12/22 09:11:08;;;;;;;9.87;1.90;;;11.50;80.00;;;;;;5030524;28;20478;-73
2022/12/22 09:13:34;;;;;;;6.20;1.67;;;11.50;79.50;;;;;;5030262;28;20599;-73
2022/12/22 09:16:04;;;;;;;13.03;2.40;;;11.70;79.20;;;;;;5016587;28;20189;-73
2022/12/22 09:18:29;;;;;;;7.57;1.80;;;11.80;78.60;;;;;;5033959;28;20177;-75
2022/12/22 09:20:55;;;;;;;6.23;1.90;;;11.70;80.20;;;;;;5031264;28;21265;-74
2022/12/22 09:23:21;;;;;;;6.60;2.00;;;11.50;81.70;;;;;;5025465;28;20240;-75
2022/12/22 09:25:46;;;;;;;6.90;2.00;;;11.30;83.40;;;;;;5025096;28;20178;-73
2022/12/22 09:28:12;;;;;;;7.80;2.53;;;11.10;84.90;;;;;;5023974;28;20263;-75
2022/12/22 09:30:38;;;;;;;12.47;2.73;;;11.00;86.30;;;;;;5019007;28;20660;-75
2022/12/22 09:33:03;;;;;;;7.03;2.10;;;10.80;87.40;;;;;;5023018;28;20459;-75
2022/12/22 09:35:29;;;;;;;12.93;2.60;;;10.70;88.30;;;;;;5020086;28;20185;-72
2022/12/22 09:37:54;;;;;;;8.43;2.30;;;10.60;88.60;;;;;;5022965;28;20193;-74
2022/12/22 09:40:21;;;;;;;12.00;2.07;;;10.50;89.20;;;;;;5027889;28;20236;-76
2022/12/22 09:42:46;;;;;;;9.73;2.50;;;10.50;89.90;;;;;;5017364;28;20308;-76
2022/12/22 09:45:21;;;;;;;10.67;2.83;;;10.50;90.20;;;;;;5023029;28;20602;-76
2022/12/22 09:47:55;;;;;;;8.00;2.03;;;10.40;90.50;;;;;;5030244;28;20415;-76
2022/12/22 09:50:23;;;;;;;5.87;2.03;;;10.40;90.80;;;;;;5028776;28;20456;-76
2022/12/22 09:52:53;;;;;;;12.53;2.13;;;10.40;90.80;;;;;;5020678;28;20508;-76
2022/12/22 09:55:25;;;;;;;11.70;2.23;;;10.40;90.80;;;;;;5028041;28;20534;-75
2022/12/22 09:57:52;;;;;;;9.07;2.47;;;10.30;90.80;;;;;;5021890;28;21310;-75
2022/12/22 10:00:21;;;;;;;7.23;1.83;;;10.30;90.90;;;;;;5029425;28;20999;-74
2022/12/22 10:03:11;;;;;;;7.93;1.63;;;10.30;90.80;;;;;;5021857;28;20857;-74
2022/12/22 10:05:41;;;;;;;11.47;3.10;;;10.40;91.00;;;;;;5020918;28;20462;-75
2022/12/22 10:08:13;;;;;;;11.73;1.97;;;10.40;90.80;;;;;;5023886;28;20432;-75
2022/12/22 10:10:39;;;;;;;6.40;2.10;;;10.50;90.90;;;;;;5029226;28;20803;-76
2022/12/22 10:13:05;;;;;;;7.30;2.70;;;10.50;91.00;;;;;;5033956;28;20467;-74
2022/12/22 10:15:37;;;;;;;5.70;2.10;;;10.60;90.90;;;;;;5021449;28;20190;-74
2022/12/22 10:18:17;;;;;;;3.40;1.87;;;10.60;90.60;;;;;;5025971;28;20429;-76
2022/12/22 10:21:12;;;;;;;4.60;1.53;;;10.70;90.40;;;;;;5022821;28;20499;-76
2022/12/22 10:23:44;;;;;;;4.43;1.93;;;10.70;90.40;;;;;;5027766;28;20447;-74
2022/12/22 10:26:16;;;;;;;6.67;2.03;;;10.70;90.50;;;;;;5024035;28;20427;-76
2022/12/22 10:28:45;;;;;;;6.03;2.10;;;10.70;90.50;;;;;;5024690;28;20428;-75
2022/12/22 10:31:17;;;;;;;4.40;1.80;;;10.80;90.40;;;;;;5022745;28;20447;-77
2022/12/22 10:33:44;;;;;;;5.90;2.33;;;10.90;90.60;;;;;;5026090;28;20420;-74
2022/12/22 10:36:12;;;;;;;9.33;2.30;;;10.90;90.50;;;;;;5031081;28;20811;-75
2022/12/22 10:38:52;;;;;;;3.70;1.60;;;10.80;90.80;;;;;;5031776;28;20431;-76
2022/12/22 10:41:21;;;;;;;8.33;1.93;;;10.80;90.60;;;;;;5028689;28;20468;-75
2022/12/22 10:43:52;;;;;;;6.20;1.90;;;10.70;90.80;;;;;;5035563;28;20973;-75
2022/12/22 10:46:27;;;;;;;5.40;1.70;;;10.80;91.00;;;;;;5028652;28;20546;-74
2022/12/22 10:49:06;;;;;;;7.70;2.90;;;10.80;90.90;;;;;;5028256;28;20449;-75
2022/12/22 10:51:32;;;;;;;3.20;1.40;;;10.80;91.20;;;;;;5031701;28;20467;-75
2022/12/22 10:53:57;;;;;;;4.30;2.00;;;10.80;91.50;;;;;;5026181;28;20474;-77
2022/12/22 10:56:31;;;;;;;4.37;1.80;;;10.80;91.60;;;;;;5027669;28;20197;-75
2022/12/22 10:59:12;;;;;;;11.73;2.20;;;10.70;91.50;;;;;;5020934;28;20215;-74
2022/12/22 11:01:38;;;;;;;4.30;1.90;;;10.80;91.60;;;;;;5023590;28;20534;-77
2022/12/22 11:04:25;;;;;;;5.13;1.80;;;10.70;91.20;;;;;;5019647;28;21185;-74
2022/12/22 11:06:57;;;;;;;4.60;1.90;;;10.80;91.20;;;;;;5023674;28;20181;-75
2022/12/22 11:09:25;;;;;;;5.37;2.03;;;10.80;91.00;;;;;;5029679;28;20930;-75
2022/12/22 11:12:18;;;;;;;3.50;1.50;;;10.80;90.80;;;;;;5026039;28;20455;-76
2022/12/22 11:15:07;;;;;;;2.23;1.60;;;10.90;90.40;;;;;;5022769;28;20452;-77
2022/12/22 11:17:45;;;;;;;6.03;1.97;;;11.00;90.20;;;;;;5011254;28;20864;-75
2022/12/22 11:20:33;;;;;;;6.50;1.93;;;11.00;89.70;;;;;;5024123;28;20457;-75
2022/12/22 11:23:06;;;;;;;5.50;1.73;;;11.20;89.50;;;;;;5012611;28;20508;-76
2022/12/22 11:25:55;;;;;;;4.43;1.80;;;11.30;89.30;;;;;;5015694;28;21212;-76
2022/12/22 11:28:47;;;;;;;3.80;1.60;;;11.40;88.40;;;;;;5014816;28;20451;-75
2022/12/22 11:31:50;;;;;;;2.90;1.60;;;11.40;87.60;;;;;;5021877;28;20424;-76
2022/12/22 11:34:36;;;;;;;3.27;1.50;;;11.50;87.30;;;;;;5025327;28;20455;-75
2022/12/22 11:37:37;;;;;;;3.40;1.33;;;11.60;87.00;;;;;;5023910;28;20592;-76
2022/12/22 11:40:17;;;;;;;6.53;1.53;;;11.60;86.80;;;;;;5015441;28;20437;-76
2022/12/22 11:43:02;;;;;;;3.20;1.20;;;11.60;87.00;;;;;;5018665;28;20470;-76
2022/12/22 11:45:37;;;;;;;4.07;1.40;;;11.60;86.90;;;;;;5022904;28;20416;-75
2022/12/22 11:48:24;;;;;;;2.73;1.60;;;11.60;86.50;;;;;;5025310;28;20420;-75
2022/12/22 11:50:55;;;;;;;4.10;1.83;;;11.70;86.00;;;;;;5021897;28;20420;-77
2022/12/22 11:53:39;;;;;;;3.97;1.77;;;11.90;85.50;;;;;;5028626;28;20485;-75
2022/12/22 11:56:24;;;;;;;3.77;1.33;;;11.90;84.60;;;;;;5027916;28;21336;-75
2022/12/22 11:58:52;;;;;;;5.83;1.40;;;11.90;84.60;;;;;;5028521;28;20424;-74
2022/12/22 12:01:21;;;;;;;8.33;1.33;;;11.90;84.30;;;;;;5029742;28;20461;-76
2022/12/22 12:04:19;;;;;;;11.13;1.83;;;11.90;84.40;;;;;;5018051;28;20959;-75
2022/12/22 12:07:10;;;;;;;2.97;1.30;;;12.00;84.10;;;;;;5021626;28;20447;-75
2022/12/22 12:09:39;;;;;;;3.50;1.43;;;12.20;83.30;;;;;;5016982;28;20416;-74
2022/12/22 12:12:24;;;;;;;4.93;1.63;;;12.20;82.70;;;;;;5027886;28;20475;-75
2022/12/22 12:14:49;;;;;;;3.27;1.47;;;12.30;82.40;;;;;;5024417;28;20981;-74
2022/12/22 12:17:38;;;;;;;1.30;0.93;;;12.30;82.10;;;;;;5026303;28;20460;-74
2022/12/22 12:20:24;;;;;;;2.93;1.50;;;12.40;82.10;;;;;;5016102;28;20288;-75
2022/12/22 12:23:18;;;;;;;4.83;1.10;;;12.50;81.50;;;;;;5022029;28;20825;-74
2022/12/22 12:26:15;;;;;;;1.43;1.20;;;12.60;80.90;;;;;;5023277;28;20422;-74
2022/12/22 12:28:50;;;;;;;3.73;1.10;;;12.50;80.50;;;;;;5026138;28;20424;-75
2022/12/22 12:31:18;;;;;;;7.10;1.23;;;12.50;80.80;;;;;;5022272;28;20415;-75
2022/12/22 12:33:51;;;;;;;3.97;1.77;;;12.50;81.10;;;;;;5025985;28;20778;-74
2022/12/22 12:36:29;;;;;;;5.87;1.47;;;12.50;80.80;;;;;;5028065;28;20458;-74
2022/12/22 12:39:17;;;;;;;3.87;1.63;;;12.50;80.90;;;;;;5019943;28;20494;-74
2022/12/22 12:41:48;;;;;;;2.00;1.10;;;12.60;81.20;;;;;;5022278;28;20617;-76
2022/12/22 12:44:17;;;;;;;5.10;1.40;;;12.50;80.90;;;;;;5030435;28;20929;-74
2022/12/22 12:46:55;;;;;;;3.17;1.40;;;12.50;81.10;;;;;;5018621;28;20431;-74
2022/12/22 12:49:33;;;;;;;6.50;2.30;;;12.40;81.90;;;;;;5029173;28;20427;-75
2022/12/22 12:52:19;;;;;;;3.87;1.23;;;12.40;81.40;;;;;;5019808;28;20475;-74
2022/12/22 12:54:46;;;;;;;4.10;1.27;;;12.40;81.20;;;;;;4992008;28;20552;-74
2022/12/22 12:57:29;;;;;;;2.60;1.00;;;12.40;80.80;;;;;;5024782;28;21017;-75
2022/12/22 12:59:57;;;;;;;2.17;1.27;;;12.30;80.30;;;;;;5026129;28;20875;-75
2022/12/22 13:02:26;;;;;;;6.60;1.20;;;12.40;80.00;;;;;;5024856;28;20566;-74
2022/12/22 13:05:13;;;;;;;8.60;2.23;;;12.40;80.30;;;;;;5024559;28;20425;-75
2022/12/22 13:08:03;;;;;;;2.30;1.10;;;12.40;80.00;;;;;;5021966;28;20948;-75
2022/12/22 13:10:29;;;;;;;2.17;1.03;;;12.50;79.90;;;;;;5023359;28;20420;-74
2022/12/22 13:12:56;;;;;;;6.37;1.10;;;12.50;79.90;;;;;;5023297;28;20459;-75
2022/12/22 13:15:37;;;;;;;2.27;0.80;;;12.50;79.90;;;;;;5027093;28;20985;-75
2022/12/22 13:18:24;;;;;;;3.07;1.40;;;12.40;79.70;;;;;;5025290;28;20436;-76
2022/12/22 13:20:58;;;;;;;3.60;1.00;;;12.50;79.90;;;;;;5029011;28;20719;-75
2022/12/22 13:23:34;;;;;;;1.77;1.37;;;12.40;80.00;;;;;;5026420;28;20447;-75
2022/12/22 13:26:05;;;;;;;1.97;1.40;;;12.30;80.50;;;;;;5021467;28;20478;-76
2022/12/22 13:28:31;;;;;;;2.47;1.50;;;12.20;80.90;;;;;;5023287;28;20428;-76
2022/12/22 13:31:02;;;;;;;1.57;1.10;;;12.20;80.80;;;;;;5025959;28;20464;-75
2022/12/22 13:33:31;;;;;;;2.30;1.00;;;12.20;81.10;;;;;;5030607;28;20529;-75
2022/12/22 13:35:57;;;;;;;5.53;1.23;;;12.20;81.10;;;;;;5029310;28;20466;-75
2022/12/22 13:38:32;;;;;;;1.67;1.30;;;12.20;81.50;;;;;;5031228;28;20427;-75
2022/12/22 13:41:01;;;;;;;2.53;1.30;;;12.20;81.20;;;;;;5025416;28;20883;-74
2022/12/22 13:43:29;;;;;;;2.07;1.43;;;12.20;81.40;;;;;;5025974;28;20444;-74
2022/12/22 13:45:57;;;;;;;2.87;1.40;;;12.20;81.20;;;;;;5036716;28;20412;-74
2022/12/22 13:48:36;;;;;;;2.83;1.00;;;12.30;81.10;;;;;;5033496;28;20476;-74
2022/12/22 13:51:07;;;;;;;2.90;1.20;;;12.30;80.90;;;;;;5024973;28;20483;-74
2022/12/22 13:53:40;;;;;;;2.00;1.20;;;12.40;80.60;;;;;;5018221;28;20478;-76
2022/12/22 13:56:11;;;;;;;2.40;1.40;;;12.40;80.20;;;;;;5026127;28;20469;-73
2022/12/22 13:58:39;;;;;;;2.03;0.93;;;12.40;79.90;;;;;;5026820;28;20423;-76
2022/12/22 14:01:08;;;;;;;3.40;1.30;;;12.40;79.90;;;;;;5024105;28;20979;-73
2022/12/22 14:03:38;;;;;;;3.27;1.10;;;12.50;79.90;;;;;;5029312;28;20446;-74
2022/12/22 14:06:19;;;;;;;4.40;1.20;;;12.40;79.20;;;;;;5017638;28;20421;-76
2022/12/22 14:08:45;;;;;;;2.27;1.30;;;12.40;79.30;;;;;;5024301;28;20915;-75
2022/12/22 14:11:11;;;;;;;4.67;1.50;;;12.40;79.20;;;;;;5015286;28;20540;-74
2022/12/22 14:13:38;;;;;;;2.37;1.20;;;12.30;79.50;;;;;;5029860;28;20208;-75
2022/12/22 14:16:04;;;;;;;3.53;1.30;;;12.40;78.90;;;;;;5025997;28;20193;-74
2022/12/22 14:18:31;;;;;;;6.03;1.37;;;12.50;78.70;;;;;;5029624;28;20981;-75
2022/12/22 14:20:58;;;;;;;8.03;1.73;;;12.50;78.70;;;;;;5019344;28;20471;-75
2022/12/22 14:23:27;;;;;;;5.37;1.47;;;12.50;78.70;;;;;;5027327;28;20459;-73
2022/12/22 14:25:54;;;;;;;4.00;1.20;;;12.40;78.90;;;;;;5022357;28;20420;-74
2022/12/22 14:28:32;;;;;;;3.33;1.60;;;12.40;78.90;;;;;;5025874;28;20416;-75
2022/12/22 14:30:59;;;;;;;3.30;1.47;;;12.40;79.20;;;;;;5016673;28;21038;-75
2022/12/22 14:33:27;;;;;;;4.13;1.73;;;12.40;79.00;;;;;;5022897;28;20547;-74
2022/12/22 14:36:14;;;;;;;5.63;1.57;;;12.30;79.50;;;;;;5017652;28;20428;-74
2022/12/22 14:38:46;;;;;;;6.27;1.80;;;12.20;79.30;;;;;;5018426;28;20448;-74
2022/12/22 14:41:40;;;;;;;4.93;1.50;;;12.20;79.50;;;;;;5018183;28;20494;-75
2022/12/22 14:44:27;;;;;;;9.60;2.33;;;12.20;79.60;;;;;;5022099;28;20482;-75
2022/12/22 14:47:15;;;;;;;3.83;1.70;;;12.20;79.20;;;;;;5022657;28;20424;-76
2022/12/22 14:50:00;;;;;;;7.63;2.17;;;12.20;79.20;;;;;;5034533;28;20420;-76
2022/12/22 14:52:44;;;;;;;7.60;2.23;;;12.10;78.90;;;;;;5032205;28;20484;-73
2022/12/22 14:55:33;;;;;;;4.57;2.30;;;12.20;78.90;;;;;;5034381;28;20565;-75
2022/12/22 14:58:11;;;;;;;6.90;2.20;;;12.20;79.00;;;;;;5027251;28;20446;-74
2022/12/22 15:00:42;;;;;;;9.77;2.50;;;12.10;79.00;;;;;;5027594;28;21045;-73
2022/12/22 15:03:36;;;;;;;7.47;2.30;;;12.00;79.50;;;;;;5028020;28;20465;-76
2022/12/22 15:06:25;;;;;;;5.27;1.90;;;12.00;79.60;;;;;;5028414;28;20659;-74
2022/12/22 15:09:05;;;;;;;7.50;2.17;;;11.90;80.00;;;;;;5024383;28;20527;-75
2022/12/22 15:11:32;;;;;;;9.20;2.80;;;11.90;80.50;;;;;;5027889;28;20463;-75
2022/12/22 15:13:57;;;;;;;7.97;2.73;;;11.80;80.60;;;;;;5025450;28;20790;-74
2022/12/22 15:16:24;;;;;;;5.67;2.47;;;11.70;81.10;;;;;;5025412;28;20427;-75
2022/12/22 15:18:51;;;;;;;7.60;2.03;;;11.70;81.40;;;;;;5026776;28;20196;-75
2022/12/22 15:21:18;;;;;;;6.73;2.90;;;11.70;81.40;;;;;;5022867;28;20472;-76
2022/12/22 15:23:44;;;;;;;7.93;2.80;;;11.70;81.50;;;;;;5034230;28;20505;-73
2022/12/22 15:26:10;;;;;;;7.37;2.40;;;11.70;81.40;;;;;;5031036;28;20792;-75
2022/12/22 15:28:36;;;;;;;7.93;1.90;;;11.70;81.50;;;;;;5025857;28;20423;-74
2022/12/22 15:31:05;;;;;;;7.07;2.07;;;11.70;81.70;;;;;;5023913;28;20424;-73
2022/12/22 15:33:31;;;;;;;8.53;2.10;;;11.60;81.80;;;;;;5026990;28;20193;-73
2022/12/22 15:35:56;;;;;;;7.27;2.50;;;11.60;82.10;;;;;;5038125;28;20899;-73
2022/12/22 15:38:24;;;;;;;6.30;2.17;;;11.50;82.20;;;;;;5038199;28;20268;-75
2022/12/22 15:40:50;;;;;;;7.27;3.00;;;11.50;82.50;;;;;;5030702;28;20223;-73
2022/12/22 15:43:16;;;;;;;8.07;2.57;;;11.50;82.70;;;;;;5033297;28;20498;-74
2022/12/22 15:45:43;;;;;;;3.60;2.03;;;11.40;82.80;;;;;;5028877;28;20423;-73
2022/12/22 15:48:16;;;;;;;5.73;2.30;;;11.40;83.10;;;;;;5032911;28;20456;-74
2022/12/22 15:50:43;;;;;;;4.83;1.63;;;11.40;83.30;;;;;;5041664;28;20466;-74
2022/12/22 15:53:14;;;;;;;8.87;2.07;;;11.30;83.40;;;;;;5031102;28;20494;-73
2022/12/22 15:55:42;;;;;;;5.67;1.37;;;11.30;83.40;;;;;;5030246;28;20790;-74
2022/12/22 15:58:12;;;;;;;3.57;2.03;;;11.30;83.60;;;;;;5026037;28;20429;-73
2022/12/22 16:00:37;;;;;;;5.03;1.90;;;11.20;83.80;;;;;;5023407;28;20533;-74
2022/12/22 16:03:04;;;;;;;8.13;2.77;;;11.20;84.00;;;;;;5029671;28;20467;-75
2022/12/22 16:05:31;;;;;;;9.43;2.23;;;11.20;84.00;;;;;;5028323;28;20187;-75
2022/12/22 16:07:57;;;;;;;3.70;1.77;;;11.20;84.10;;;;;;5028218;28;20437;-73
2022/12/22 16:10:32;;;;;;;5.00;2.43;;;11.20;84.00;;;;;;5028314;28;20431;-74
2022/12/22 16:13:01;;;;;;;4.87;1.83;;;11.20;84.10;;;;;;5024460;28;20236;-73
2022/12/22 16:15:30;;;;;;;6.67;2.30;;;11.20;84.00;;;;;;5029273;28;20423;-73
2022/12/22 16:17:57;;;;;;;8.50;2.67;;;11.10;84.00;;;;;;5025116;28;20428;-74
2022/12/22 16:20:23;;;;;;;8.43;2.30;;;11.10;83.80;;;;;;5027204;28;20899;-74
2022/12/22 16:22:50;;;;;;;6.50;2.43;;;11.10;83.80;;;;;;5028501;28;20544;-75
2022/12/22 16:25:22;;;;;;;9.23;2.50;;;11.10;83.60;;;;;;5026209;28;20796;-73
2022/12/22 16:27:48;;;;;;;8.83;1.90;;;11.10;83.30;;;;;;5027324;28;20404;-74
2022/12/22 16:30:21;;;;;;;7.93;2.50;;;11.10;83.10;;;;;;5024079;28;20469;-74
2022/12/22 16:32:46;;;;;;;8.90;2.60;;;11.10;83.10;;;;;;5026281;28;20212;-73
2022/12/22 16:35:14;;;;;;;10.07;2.63;;;11.10;82.70;;;;;;5022248;28;20800;-74
2022/12/22 16:37:40;;;;;;;8.90;2.10;;;11.10;82.70;;;;;;5033199;28;20182;-74
2022/12/22 16:40:07;;;;;;;8.77;2.80;;;11.00;82.80;;;;;;5029025;28;20435;-75
2022/12/22 16:42:34;;;;;;;5.23;2.47;;;11.00;82.80;;;;;;5025914;28;20617;-75
2022/12/22 16:45:01;;;;;;;5.13;2.10;;;11.00;82.50;;;;;;5028870;28;20420;-77